sensor_id;sensor_type;location;lat;lon;timestamp;pressure;altitude;pressure_sealevel;temperature;humidity
23341;BME280;12239;53.404;23.492;2022-08-05T00:01:25;100085.71;;;14.71;100.00
23341;BME280;12239;53.404;23.492;2022-08-05T00:04:12;100082.63;;;14.71;100.00
23341;BME280;12239;53.404;23.492;2022-08-05T00:06:59;100080.73;;;14.71;100.00
23341;BME280;12239;53.404;23.492;2022-08-05T00:09:47;100082.25;;;14.69;100.00
23341;BME280;12239;53.404;23.492;2022-08-05T00:12:34;100079.01;;;14.66;100.00
23341;BME280;12239;53.404;23.492;2022-08-05T00:15:22;100080.55;;;14.65;100.00
23341;BME280;12239;53.404;23.492;2022-08-05T00:18:09;100076.48;;;14.64;100.00
23341;BME280;12239;53.404;23.492;2022-08-05T00:20:57;100077.52;;;14.63;100.00
23341;BME280;12239;53.404;23.492;2022-08-05T00:23:45;100077.33;;;14.62;100.00
23341;BME280;12239;53.404;23.492;2022-08-05T00:26:33;100072.71;;;14.60;100.00
23341;BME280;12239;53.404;23.492;2022-08-05T00:29:20;100074.45;;;14.60;100.00
23341;BME280;12239;53.404;23.492;2022-08-05T00:32:07;100075.71;;;14.59;100.00
23341;BME280;12239;53.404;23.492;2022-08-05T00:34:58;100072.55;;;14.58;100.00
23341;BME280;12239;53.404;23.492;2022-08-05T00:37:45;100069.98;;;14.56;100.00
23341;BME280;12239;53.404;23.492;2022-08-05T00:40:33;100065.45;;;14.52;100.00
23341;BME280;12239;53.404;23.492;2022-08-05T00:43:31;100064.73;;;14.47;100.00
23341;BME280;12239;53.404;23.492;2022-08-05T00:46:07;100065.14;;;14.44;100.00
23341;BME280;12239;53.404;23.492;2022-08-05T00:48:54;100060.04;;;14.39;100.00
23341;BME280;12239;53.404;23.492;2022-08-05T00:51:42;100053.02;;;14.35;100.00
23341;BME280;12239;53.404;23.492;2022-08-05T00:54:29;100057.15;;;14.32;100.00
23341;BME280;12239;53.404;23.492;2022-08-05T00:57:16;100052.42;;;14.28;100.00
23341;BME280;12239;53.404;23.492;2022-08-05T01:00:05;100053.95;;;14.24;100.00
23341;BME280;12239;53.404;23.492;2022-08-05T01:02:53;100050.48;;;14.19;100.00
23341;BME280;12239;53.404;23.492;2022-08-05T01:05:40;100049.23;;;14.13;100.00
23341;BME280;12239;53.404;23.492;2022-08-05T01:08:28;100049.89;;;14.10;100.00
23341;BME280;12239;53.404;23.492;2022-08-05T01:11:16;100045.59;;;14.06;100.00
23341;BME280;12239;53.404;23.492;2022-08-05T01:14:08;100043.69;;;14.03;100.00
23341;BME280;12239;53.404;23.492;2022-08-05T01:16:59;100042.45;;;14.00;100.00
23341;BME280;12239;53.404;23.492;2022-08-05T01:19:49;100038.31;;;13.96;100.00
23341;BME280;12239;53.404;23.492;2022-08-05T01:22:41;100036.84;;;13.91;100.00
23341;BME280;12239;53.404;23.492;2022-08-05T01:28:35;100034.75;;;13.86;100.00
23341;BME280;12239;53.404;23.492;2022-08-05T01:31:25;100031.92;;;13.84;100.00
23341;BME280;12239;53.404;23.492;2022-08-05T01:34:06;100025.27;;;13.84;100.00
23341;BME280;12239;53.404;23.492;2022-08-05T01:36:57;100017.77;;;13.84;100.00
23341;BME280;12239;53.404;23.492;2022-08-05T01:39:48;100018.73;;;13.84;100.00
23341;BME280;12239;53.404;23.492;2022-08-05T01:42:38;100022.65;;;13.83;100.00
23341;BME280;12239;53.404;23.492;2022-08-05T01:45:27;100021.73;;;13.83;100.00
23341;BME280;12239;53.404;23.492;2022-08-05T01:48:15;100011.46;;;13.83;100.00
23341;BME280;12239;53.404;23.492;2022-08-05T01:51:04;100005.56;;;13.85;100.00
23341;BME280;12239;53.404;23.492;2022-08-05T01:53:52;100008.65;;;13.85;100.00
23341;BME280;12239;53.404;23.492;2022-08-05T01:56:41;100010.93;;;13.88;100.00
23341;BME280;12239;53.404;23.492;2022-08-05T01:59:30;100008.76;;;13.89;100.00
23341;BME280;12239;53.404;23.492;2022-08-05T02:02:20;100007.48;;;13.90;100.00
23341;BME280;12239;53.404;23.492;2022-08-05T02:05:10;100006.73;;;13.90;100.00
23341;BME280;12239;53.404;23.492;2022-08-05T02:07:43;100006.43;;;13.89;100.00
23341;BME280;12239;53.404;23.492;2022-08-05T02:10:35;100008.35;;;13.88;100.00
23341;BME280;12239;53.404;23.492;2022-08-05T02:13:25;99998.23;;;13.87;100.00
23341;BME280;12239;53.404;23.492;2022-08-05T02:16:14;99994.13;;;13.84;100.00
23341;BME280;12239;53.404;23.492;2022-08-05T02:19:07;99994.09;;;13.83;100.00
23341;BME280;12239;53.404;23.492;2022-08-05T02:21:58;99994.02;;;13.82;100.00
23341;BME280;12239;53.404;23.492;2022-08-05T02:24:49;99993.59;;;13.81;100.00
23341;BME280;12239;53.404;23.492;2022-08-05T02:27:38;99995.39;;;13.80;100.00
23341;BME280;12239;53.404;23.492;2022-08-05T02:30:27;99997.35;;;13.79;100.00
23341;BME280;12239;53.404;23.492;2022-08-05T02:33:17;99997.68;;;13.76;100.00
23341;BME280;12239;53.404;23.492;2022-08-05T02:36:05;99996.51;;;13.73;100.00
23341;BME280;12239;53.404;23.492;2022-08-05T02:38:55;99997.36;;;13.70;100.00
23341;BME280;12239;53.404;23.492;2022-08-05T02:41:43;99996.63;;;13.66;100.00
23341;BME280;12239;53.404;23.492;2022-08-05T02:44:33;99996.73;;;13.63;100.00
23341;BME280;12239;53.404;23.492;2022-08-05T02:47:21;99998.09;;;13.60;100.00
23341;BME280;12239;53.404;23.492;2022-08-05T02:50:10;99999.77;;;13.57;100.00
23341;BME280;12239;53.404;23.492;2022-08-05T02:52:59;99998.35;;;13.55;100.00
23341;BME280;12239;53.404;23.492;2022-08-05T02:55:47;99994.30;;;13.53;100.00
23341;BME280;12239;53.404;23.492;2022-08-05T02:58:24;99989.43;;;13.51;100.00
23341;BME280;12239;53.404;23.492;2022-08-05T03:01:13;99993.52;;;13.50;100.00
23341;BME280;12239;53.404;23.492;2022-08-05T03:04:03;99994.44;;;13.49;100.00
23341;BME280;12239;53.404;23.492;2022-08-05T03:06:51;99998.46;;;13.49;100.00
23341;BME280;12239;53.404;23.492;2022-08-05T03:09:41;99999.98;;;13.48;100.00
23341;BME280;12239;53.404;23.492;2022-08-05T03:12:29;100001.04;;;13.49;100.00
23341;BME280;12239;53.404;23.492;2022-08-05T03:15:17;99998.56;;;13.49;100.00
23341;BME280;12239;53.404;23.492;2022-08-05T03:18:04;100000.65;;;13.49;100.00
23341;BME280;12239;53.404;23.492;2022-08-05T03:20:52;99998.92;;;13.53;100.00
23341;BME280;12239;53.404;23.492;2022-08-05T03:23:40;99994.44;;;13.57;100.00
23341;BME280;12239;53.404;23.492;2022-08-05T03:26:25;99994.95;;;13.61;100.00
23341;BME280;12239;53.404;23.492;2022-08-05T03:29:12;99994.38;;;13.65;100.00
23341;BME280;12239;53.404;23.492;2022-08-05T03:31:59;99993.63;;;13.71;100.00
23341;BME280;12239;53.404;23.492;2022-08-05T03:34:47;99993.90;;;13.79;100.00
23341;BME280;12239;53.404;23.492;2022-08-05T03:37:35;99994.61;;;13.87;100.00
23341;BME280;12239;53.404;23.492;2022-08-05T03:40:22;99998.64;;;13.97;100.00
23341;BME280;12239;53.404;23.492;2022-08-05T03:43:10;99995.48;;;14.06;100.00
23341;BME280;12239;53.404;23.492;2022-08-05T03:45:58;99996.94;;;14.15;100.00
23341;BME280;12239;53.404;23.492;2022-08-05T03:48:45;100000.15;;;14.24;100.00
23341;BME280;12239;53.404;23.492;2022-08-05T03:51:34;100005.00;;;14.35;100.00
23341;BME280;12239;53.404;23.492;2022-08-05T03:54:25;100004.55;;;14.47;100.00
23341;BME280;12239;53.404;23.492;2022-08-05T03:56:59;100002.81;;;14.66;100.00
23341;BME280;12239;53.404;23.492;2022-08-05T03:59:50;100003.89;;;14.97;100.00
23341;BME280;12239;53.404;23.492;2022-08-05T04:02:41;100002.97;;;15.37;100.00
23341;BME280;12239;53.404;23.492;2022-08-05T04:05:30;100009.91;;;15.83;100.00
23341;BME280;12239;53.404;23.492;2022-08-05T04:08:18;100007.43;;;16.32;99.89
23341;BME280;12239;53.404;23.492;2022-08-05T04:11:06;100004.20;;;16.79;98.78
23341;BME280;12239;53.404;23.492;2022-08-05T04:13:53;100003.48;;;17.24;97.01
23341;BME280;12239;53.404;23.492;2022-08-05T04:16:41;100001.50;;;17.72;95.57
23341;BME280;12239;53.404;23.492;2022-08-05T04:19:29;99998.67;;;18.19;93.84
23341;BME280;12239;53.404;23.492;2022-08-05T04:22:16;100003.20;;;18.71;91.91
23341;BME280;12239;53.404;23.492;2022-08-05T04:25:05;100002.88;;;19.18;90.40
23341;BME280;12239;53.404;23.492;2022-08-05T04:27:48;100004.97;;;19.66;87.72
23341;BME280;12239;53.404;23.492;2022-08-05T04:30:36;100001.66;;;20.03;86.16
23341;BME280;12239;53.404;23.492;2022-08-05T04:33:23;100002.57;;;20.40;84.96
23341;BME280;12239;53.404;23.492;2022-08-05T04:36:11;99999.05;;;20.78;83.77
23341;BME280;12239;53.404;23.492;2022-08-05T04:38:59;99999.29;;;21.05;81.70
23341;BME280;12239;53.404;23.492;2022-08-05T04:41:47;99997.58;;;21.14;81.05
23341;BME280;12239;53.404;23.492;2022-08-05T04:44:35;99999.80;;;21.39;80.68
23341;BME280;12239;53.404;23.492;2022-08-05T04:47:22;99999.39;;;21.65;79.89
23341;BME280;12239;53.404;23.492;2022-08-05T04:50:13;100001.06;;;21.86;78.48
23341;BME280;12239;53.404;23.492;2022-08-05T04:53:00;100003.19;;;22.03;77.37
23341;BME280;12239;53.404;23.492;2022-08-05T04:55:47;100005.02;;;22.08;77.00
23341;BME280;12239;53.404;23.492;2022-08-05T04:58:35;99997.25;;;22.07;76.90
23341;BME280;12239;53.404;23.492;2022-08-05T05:01:22;100001.64;;;22.00;77.15
23341;BME280;12239;53.404;23.492;2022-08-05T05:04:10;100000.25;;;21.91;77.32
23341;BME280;12239;53.404;23.492;2022-08-05T05:06:57;100000.59;;;21.79;78.18
23341;BME280;12239;53.404;23.492;2022-08-05T05:09:45;100004.71;;;21.68;78.65
23341;BME280;12239;53.404;23.492;2022-08-05T05:12:32;100000.73;;;21.56;79.32
23341;BME280;12239;53.404;23.492;2022-08-05T05:15:20;100005.13;;;21.46;79.64
23341;BME280;12239;53.404;23.492;2022-08-05T05:18:07;100000.64;;;21.38;80.09
23341;BME280;12239;53.404;23.492;2022-08-05T05:20:55;100000.52;;;21.34;80.88
23341;BME280;12239;53.404;23.492;2022-08-05T05:23:43;100007.19;;;21.32;81.12
23341;BME280;12239;53.404;23.492;2022-08-05T05:26:30;100004.80;;;21.33;81.73
23341;BME280;12239;53.404;23.492;2022-08-05T05:29:17;100006.36;;;21.33;82.35
23341;BME280;12239;53.404;23.492;2022-08-05T05:32:05;100004.59;;;21.37;82.94
23341;BME280;12239;53.404;23.492;2022-08-05T05:34:53;99999.45;;;21.41;83.35
23341;BME280;12239;53.404;23.492;2022-08-05T05:37:47;100000.09;;;21.45;83.36
23341;BME280;12239;53.404;23.492;2022-08-05T05:40:34;100000.29;;;21.52;83.77
23341;BME280;12239;53.404;23.492;2022-08-05T05:43:22;100000.47;;;21.62;83.87
23341;BME280;12239;53.404;23.492;2022-08-05T05:46:10;100003.05;;;21.71;83.87
23341;BME280;12239;53.404;23.492;2022-08-05T05:48:57;99996.45;;;21.80;83.50
23341;BME280;12239;53.404;23.492;2022-08-05T05:51:44;99999.27;;;21.89;83.84
23341;BME280;12239;53.404;23.492;2022-08-05T05:54:32;100003.52;;;22.01;84.06
23341;BME280;12239;53.404;23.492;2022-08-05T05:57:19;99999.35;;;22.13;84.12
23341;BME280;12239;53.404;23.492;2022-08-05T06:00:08;100002.80;;;22.27;83.72
23341;BME280;12239;53.404;23.492;2022-08-05T06:02:56;99998.23;;;22.39;83.55
23341;BME280;12239;53.404;23.492;2022-08-05T06:05:44;99992.52;;;22.49;83.05
23341;BME280;12239;53.404;23.492;2022-08-05T06:08:32;99992.99;;;22.58;82.70
23341;BME280;12239;53.404;23.492;2022-08-05T06:11:19;99990.23;;;22.68;82.85
23341;BME280;12239;53.404;23.492;2022-08-05T06:14:06;99983.54;;;22.82;82.40
23341;BME280;12239;53.404;23.492;2022-08-05T06:16:54;99988.67;;;22.96;81.35
23341;BME280;12239;53.404;23.492;2022-08-05T06:19:41;99989.70;;;23.05;80.96
23341;BME280;12239;53.404;23.492;2022-08-05T06:22:30;99989.76;;;23.15;80.95
23341;BME280;12239;53.404;23.492;2022-08-05T06:25:18;99990.91;;;23.23;81.16
23341;BME280;12239;53.404;23.492;2022-08-05T06:28:05;99989.70;;;23.34;80.78
23341;BME280;12239;53.404;23.492;2022-08-05T06:30:52;99985.88;;;23.43;80.83
23341;BME280;12239;53.404;23.492;2022-08-05T06:33:31;99986.58;;;23.53;80.85
23341;BME280;12239;53.404;23.492;2022-08-05T06:36:19;99983.64;;;23.64;80.90
23341;BME280;12239;53.404;23.492;2022-08-05T06:39:06;99985.47;;;23.76;80.74
23341;BME280;12239;53.404;23.492;2022-08-05T06:41:54;99987.77;;;23.91;80.49
23341;BME280;12239;53.404;23.492;2022-08-05T06:44:41;99983.66;;;24.04;80.11
23341;BME280;12239;53.404;23.492;2022-08-05T06:47:28;99981.48;;;24.16;79.61
23341;BME280;12239;53.404;23.492;2022-08-05T06:50:16;99979.48;;;24.26;79.05
23341;BME280;12239;53.404;23.492;2022-08-05T06:53:03;99980.11;;;24.37;79.17
23341;BME280;12239;53.404;23.492;2022-08-05T06:55:51;99975.09;;;24.50;78.25
23341;BME280;12239;53.404;23.492;2022-08-05T06:58:38;99978.17;;;24.62;77.85
23341;BME280;12239;53.404;23.492;2022-08-05T07:01:26;99973.20;;;24.72;77.48
23341;BME280;12239;53.404;23.492;2022-08-05T07:04:13;99973.88;;;24.85;76.69
23341;BME280;12239;53.404;23.492;2022-08-05T07:07:00;99971.41;;;24.96;75.53
23341;BME280;12239;53.404;23.492;2022-08-05T07:09:27;99969.70;;;25.05;75.04
23341;BME280;12239;53.404;23.492;2022-08-05T07:12:15;99970.44;;;25.15;75.43
23341;BME280;12239;53.404;23.492;2022-08-05T07:15:17;99975.17;;;25.26;75.09
23341;BME280;12239;53.404;23.492;2022-08-05T07:18:23;99973.34;;;25.36;74.78
23341;BME280;12239;53.404;23.492;2022-08-05T07:21:11;99976.89;;;25.47;73.65
23341;BME280;12239;53.404;23.492;2022-08-05T07:23:59;99978.23;;;25.55;73.29
23341;BME280;12239;53.404;23.492;2022-08-05T07:26:26;99976.79;;;25.63;73.10
23341;BME280;12239;53.404;23.492;2022-08-05T07:29:13;99974.26;;;25.71;72.00
23341;BME280;12239;53.404;23.492;2022-08-05T07:32:01;99977.45;;;25.76;72.18
23341;BME280;12239;53.404;23.492;2022-08-05T07:34:28;99971.16;;;25.77;72.65
23341;BME280;12239;53.404;23.492;2022-08-05T07:37:16;99977.09;;;25.83;73.10
23341;BME280;12239;53.404;23.492;2022-08-05T07:40:04;99976.93;;;25.91;72.02
23341;BME280;12239;53.404;23.492;2022-08-05T07:42:52;99976.06;;;26.01;71.93
23341;BME280;12239;53.404;23.492;2022-08-05T07:45:39;99972.11;;;26.08;71.13
23341;BME280;12239;53.404;23.492;2022-08-05T07:48:28;99973.42;;;26.18;71.06
23341;BME280;12239;53.404;23.492;2022-08-05T07:51:15;99974.73;;;26.27;70.51
23341;BME280;12239;53.404;23.492;2022-08-05T07:54:03;99969.58;;;26.36;69.79
23341;BME280;12239;53.404;23.492;2022-08-05T07:56:50;99968.35;;;26.43;69.12
23341;BME280;12239;53.404;23.492;2022-08-05T07:59:38;99967.74;;;26.48;69.01
23341;BME280;12239;53.404;23.492;2022-08-05T08:02:26;99964.21;;;26.53;69.15
23341;BME280;12239;53.404;23.492;2022-08-05T08:05:14;99964.09;;;26.59;68.50
23341;BME280;12239;53.404;23.492;2022-08-05T08:08:01;99963.85;;;26.61;68.80
23341;BME280;12239;53.404;23.492;2022-08-05T08:10:49;99965.52;;;26.63;68.19
23341;BME280;12239;53.404;23.492;2022-08-05T08:13:19;99963.02;;;26.67;67.99
23341;BME280;12239;53.404;23.492;2022-08-05T08:16:06;99964.16;;;26.75;67.80
23341;BME280;12239;53.404;23.492;2022-08-05T08:18:43;99963.56;;;26.84;67.40
23341;BME280;12239;53.404;23.492;2022-08-05T08:21:31;99959.81;;;26.93;66.61
23341;BME280;12239;53.404;23.492;2022-08-05T08:24:19;99959.27;;;27.00;66.15
23341;BME280;12239;53.404;23.492;2022-08-05T08:27:06;99957.38;;;27.06;64.41
23341;BME280;12239;53.404;23.492;2022-08-05T08:29:53;99959.92;;;27.12;63.84
23341;BME280;12239;53.404;23.492;2022-08-05T08:32:41;99960.88;;;27.19;62.75
23341;BME280;12239;53.404;23.492;2022-08-05T08:35:29;99959.15;;;27.24;62.97
23341;BME280;12239;53.404;23.492;2022-08-05T08:38:16;99955.92;;;27.28;61.62
23341;BME280;12239;53.404;23.492;2022-08-05T08:41:04;99950.86;;;27.31;62.08
23341;BME280;12239;53.404;23.492;2022-08-05T08:43:52;99952.72;;;27.38;62.11
23341;BME280;12239;53.404;23.492;2022-08-05T08:46:41;99950.42;;;27.47;61.65
23341;BME280;12239;53.404;23.492;2022-08-05T08:49:31;99947.83;;;27.55;60.72
23341;BME280;12239;53.404;23.492;2022-08-05T08:52:02;99946.16;;;27.60;61.01
23341;BME280;12239;53.404;23.492;2022-08-05T08:54:52;99948.29;;;27.69;61.20
23341;BME280;12239;53.404;23.492;2022-08-05T08:57:40;99942.20;;;27.76;60.66
23341;BME280;12239;53.404;23.492;2022-08-05T09:00:28;99945.05;;;27.78;61.28
23341;BME280;12239;53.404;23.492;2022-08-05T09:03:16;99944.33;;;27.80;60.76
23341;BME280;12239;53.404;23.492;2022-08-05T09:06:03;99940.46;;;27.75;60.84
23341;BME280;12239;53.404;23.492;2022-08-05T09:08:34;99933.52;;;27.75;60.43
23341;BME280;12239;53.404;23.492;2022-08-05T09:11:21;99930.91;;;27.75;60.31
23341;BME280;12239;53.404;23.492;2022-08-05T09:14:09;99929.42;;;27.77;60.21
23341;BME280;12239;53.404;23.492;2022-08-05T09:16:56;99927.04;;;27.81;60.26
23341;BME280;12239;53.404;23.492;2022-08-05T09:19:44;99927.58;;;27.87;59.74
23341;BME280;12239;53.404;23.492;2022-08-05T09:25:33;99922.77;;;27.90;57.87
23341;BME280;12239;53.404;23.492;2022-08-05T09:28:21;99922.69;;;27.86;59.26
23341;BME280;12239;53.404;23.492;2022-08-05T09:31:10;99919.52;;;27.86;59.74
23341;BME280;12239;53.404;23.492;2022-08-05T09:33:59;99918.48;;;27.90;59.11
23341;BME280;12239;53.404;23.492;2022-08-05T09:36:48;99911.70;;;27.89;58.46
23341;BME280;12239;53.404;23.492;2022-08-05T09:39:37;99911.16;;;27.87;59.35
23341;BME280;12239;53.404;23.492;2022-08-05T09:42:25;99910.83;;;27.92;59.06
23341;BME280;12239;53.404;23.492;2022-08-05T09:45:14;99908.52;;;27.96;58.10
23341;BME280;12239;53.404;23.492;2022-08-05T09:51:05;99910.75;;;28.02;58.35
23341;BME280;12239;53.404;23.492;2022-08-05T09:53:52;99910.11;;;27.99;59.44
23341;BME280;12239;53.404;23.492;2022-08-05T09:56:41;99903.48;;;28.01;59.33
23341;BME280;12239;53.404;23.492;2022-08-05T09:59:31;99903.08;;;28.07;59.56
23341;BME280;12239;53.404;23.492;2022-08-05T10:02:29;99900.68;;;28.14;59.09
23341;BME280;12239;53.404;23.492;2022-08-05T10:05:18;99900.96;;;28.23;59.66
23341;BME280;12239;53.404;23.492;2022-08-05T10:07:57;99897.63;;;28.27;59.50
23341;BME280;12239;53.404;23.492;2022-08-05T10:10:46;99895.78;;;28.31;59.76
23341;BME280;12239;53.404;23.492;2022-08-05T10:13:36;99894.73;;;28.37;59.61
23341;BME280;12239;53.404;23.492;2022-08-05T10:16:28;99890.80;;;28.37;58.86
23341;BME280;12239;53.404;23.492;2022-08-05T10:19:17;99892.77;;;28.36;58.88
23341;BME280;12239;53.404;23.492;2022-08-05T10:22:04;99887.77;;;28.40;59.38
23341;BME280;12239;53.404;23.492;2022-08-05T10:24:49;99884.89;;;28.48;58.92
23341;BME280;12239;53.404;23.492;2022-08-05T10:27:37;99879.27;;;28.49;58.66
23341;BME280;12239;53.404;23.492;2022-08-05T10:30:25;99877.65;;;28.55;56.76
23341;BME280;12239;53.404;23.492;2022-08-05T10:33:13;99875.08;;;28.64;57.10
23341;BME280;12239;53.404;23.492;2022-08-05T10:36:01;99870.11;;;28.77;57.79
23341;BME280;12239;53.404;23.492;2022-08-05T10:38:49;99864.55;;;28.92;57.79
23341;BME280;12239;53.404;23.492;2022-08-05T10:41:20;99860.45;;;29.01;56.14
23341;BME280;12239;53.404;23.492;2022-08-05T10:44:15;99861.23;;;29.01;55.34
23341;BME280;12239;53.404;23.492;2022-08-05T10:47:09;99857.98;;;29.02;54.98
23341;BME280;12239;53.404;23.492;2022-08-05T10:52:38;99857.86;;;29.18;54.81
23341;BME280;12239;53.404;23.492;2022-08-05T10:55:26;99850.22;;;29.23;53.50
23341;BME280;12239;53.404;23.492;2022-08-05T10:58:13;99848.04;;;29.18;52.38
23341;BME280;12239;53.404;23.492;2022-08-05T11:01:04;99846.98;;;29.13;51.97
23341;BME280;12239;53.404;23.492;2022-08-05T11:04:07;99844.58;;;29.18;52.89
23341;BME280;12239;53.404;23.492;2022-08-05T11:07:05;99847.36;;;29.27;52.57
23341;BME280;12239;53.404;23.492;2022-08-05T11:09:53;99845.56;;;29.33;52.44
23341;BME280;12239;53.404;23.492;2022-08-05T11:12:41;99841.25;;;29.37;52.82
23341;BME280;12239;53.404;23.492;2022-08-05T11:15:33;99838.29;;;29.48;53.27
23341;BME280;12239;53.404;23.492;2022-08-05T11:18:27;99835.41;;;29.59;51.73
23341;BME280;12239;53.404;23.492;2022-08-05T11:21:31;99837.15;;;29.66;51.33
23341;BME280;12239;53.404;23.492;2022-08-05T11:24:18;99836.75;;;29.75;46.53
23341;BME280;12239;53.404;23.492;2022-08-05T11:29:58;99833.80;;;29.84;46.07
23341;BME280;12239;53.404;23.492;2022-08-05T11:32:26;99830.59;;;29.89;45.70
23341;BME280;12239;53.404;23.492;2022-08-05T11:38:15;99828.27;;;29.97;45.36
23341;BME280;12239;53.404;23.492;2022-08-05T11:41:03;99823.95;;;30.01;44.60
23341;BME280;12239;53.404;23.492;2022-08-05T11:43:53;99825.52;;;30.02;44.66
23341;BME280;12239;53.404;23.492;2022-08-05T11:46:24;99826.63;;;30.02;44.73
23341;BME280;12239;53.404;23.492;2022-08-05T11:49:12;99821.41;;;30.01;44.88
23341;BME280;12239;53.404;23.492;2022-08-05T11:52:00;99823.58;;;30.00;44.25
23341;BME280;12239;53.404;23.492;2022-08-05T11:54:48;99823.86;;;29.96;44.79
23341;BME280;12239;53.404;23.492;2022-08-05T11:57:36;99822.39;;;29.93;44.55
23341;BME280;12239;53.404;23.492;2022-08-05T12:00:27;99820.22;;;29.89;43.72
23341;BME280;12239;53.404;23.492;2022-08-05T12:03:16;99814.17;;;29.83;43.82
23341;BME280;12239;53.404;23.492;2022-08-05T12:06:00;99807.35;;;29.83;45.07
23341;BME280;12239;53.404;23.492;2022-08-05T12:08:41;99812.20;;;29.90;45.16
23341;BME280;12239;53.404;23.492;2022-08-05T12:11:29;99808.21;;;29.99;44.37
23341;BME280;12239;53.404;23.492;2022-08-05T12:14:17;99812.98;;;30.05;44.42
23341;BME280;12239;53.404;23.492;2022-08-05T12:17:08;99812.65;;;30.11;44.60
23341;BME280;12239;53.404;23.492;2022-08-05T12:19:56;99809.92;;;30.14;43.92
23341;BME280;12239;53.404;23.492;2022-08-05T12:22:43;99809.69;;;30.19;43.86
23341;BME280;12239;53.404;23.492;2022-08-05T12:25:30;99807.18;;;30.29;44.02
23341;BME280;12239;53.404;23.492;2022-08-05T12:28:29;99807.00;;;30.42;43.89
23341;BME280;12239;53.404;23.492;2022-08-05T12:31:17;99801.21;;;30.54;43.18
23341;BME280;12239;53.404;23.492;2022-08-05T12:34:05;99796.60;;;30.60;40.68
23341;BME280;12239;53.404;23.492;2022-08-05T12:36:53;99795.72;;;30.50;39.95
23341;BME280;12239;53.404;23.492;2022-08-05T12:39:41;99798.34;;;30.50;40.72
23341;BME280;12239;53.404;23.492;2022-08-05T12:42:29;99792.36;;;30.57;40.78
23341;BME280;12239;53.404;23.492;2022-08-05T12:45:16;99789.29;;;30.67;39.58
23341;BME280;12239;53.404;23.492;2022-08-05T12:48:13;99780.42;;;30.75;38.57
23341;BME280;12239;53.404;23.492;2022-08-05T12:51:09;99779.80;;;30.84;38.53
23341;BME280;12239;53.404;23.492;2022-08-05T12:54:00;99780.55;;;30.91;38.19
23341;BME280;12239;53.404;23.492;2022-08-05T12:56:49;99779.64;;;30.93;38.36
23341;BME280;12239;53.404;23.492;2022-08-05T12:59:20;99783.05;;;30.98;38.52
23341;BME280;12239;53.404;23.492;2022-08-05T13:02:08;99779.73;;;31.04;37.99
23341;BME280;12239;53.404;23.492;2022-08-05T13:04:56;99777.75;;;31.08;38.17
23341;BME280;12239;53.404;23.492;2022-08-05T13:07:44;99776.92;;;31.11;37.74
23341;BME280;12239;53.404;23.492;2022-08-05T13:10:17;99775.83;;;31.13;37.84
23341;BME280;12239;53.404;23.492;2022-08-05T13:12:48;99771.38;;;31.18;37.90
23341;BME280;12239;53.404;23.492;2022-08-05T13:15:38;99765.81;;;31.23;37.05
23341;BME280;12239;53.404;23.492;2022-08-05T13:18:36;99771.11;;;31.20;37.13
23341;BME280;12239;53.404;23.492;2022-08-05T13:21:24;99767.62;;;31.16;37.38
23341;BME280;12239;53.404;23.492;2022-08-05T13:24:07;99761.69;;;31.14;37.57
23341;BME280;12239;53.404;23.492;2022-08-05T13:26:40;99755.91;;;31.18;36.40
23341;BME280;12239;53.404;23.492;2022-08-05T13:29:27;99758.41;;;31.20;36.38
23341;BME280;12239;53.404;23.492;2022-08-05T13:32:15;99758.00;;;31.24;37.01
23341;BME280;12239;53.404;23.492;2022-08-05T13:34:42;99759.69;;;31.28;36.72
23341;BME280;12239;53.404;23.492;2022-08-05T13:37:19;99755.83;;;31.35;36.96
23341;BME280;12239;53.404;23.492;2022-08-05T13:40:08;99755.02;;;31.47;37.11
23341;BME280;12239;53.404;23.492;2022-08-05T13:42:56;99753.73;;;31.56;36.94
23341;BME280;12239;53.404;23.492;2022-08-05T13:45:44;99748.13;;;31.68;36.86
23341;BME280;12239;53.404;23.492;2022-08-05T13:48:14;99748.16;;;31.81;36.40
23341;BME280;12239;53.404;23.492;2022-08-05T13:51:05;99745.65;;;31.91;35.95
23341;BME280;12239;53.404;23.492;2022-08-05T13:54:01;99739.07;;;31.94;35.01
23341;BME280;12239;53.404;23.492;2022-08-05T13:56:28;99739.14;;;31.95;35.27
23341;BME280;12239;53.404;23.492;2022-08-05T13:59:16;99740.23;;;31.92;35.17
23341;BME280;12239;53.404;23.492;2022-08-05T14:02:04;99737.97;;;31.90;35.24
23341;BME280;12239;53.404;23.492;2022-08-05T14:04:52;99734.16;;;31.93;35.23
23341;BME280;12239;53.404;23.492;2022-08-05T14:07:57;99738.63;;;31.97;35.24
23341;BME280;12239;53.404;23.492;2022-08-05T14:10:45;99735.63;;;31.98;34.92
23341;BME280;12239;53.404;23.492;2022-08-05T14:16:32;99731.50;;;31.95;34.45
23341;BME280;12239;53.404;23.492;2022-08-05T14:19:06;99731.32;;;31.92;34.90
23341;BME280;12239;53.404;23.492;2022-08-05T14:21:40;99730.13;;;31.96;34.86
23341;BME280;12239;53.404;23.492;2022-08-05T14:24:59;99724.73;;;32.03;35.18
23341;BME280;12239;53.404;23.492;2022-08-05T14:27:47;99725.77;;;32.14;34.92
23341;BME280;12239;53.404;23.492;2022-08-05T14:30:35;99726.39;;;32.18;34.81
23341;BME280;12239;53.404;23.492;2022-08-05T14:33:22;99726.35;;;32.24;35.24
23341;BME280;12239;53.404;23.492;2022-08-05T14:36:10;99728.94;;;32.29;35.54
23341;BME280;12239;53.404;23.492;2022-08-05T14:38:57;99723.13;;;32.36;35.13
23341;BME280;12239;53.404;23.492;2022-08-05T14:41:27;99719.77;;;32.47;34.77
23341;BME280;12239;53.404;23.492;2022-08-05T14:44:15;99720.52;;;32.54;34.89
23341;BME280;12239;53.404;23.492;2022-08-05T14:47:03;99715.85;;;32.63;34.66
23341;BME280;12239;53.404;23.492;2022-08-05T14:49:50;99719.02;;;32.60;34.59